Time;durP1;ratioP1;P1;durP2;ratioP2;P2;SDS_P1;SDS_P2;PMS_P1;PMS_P2;Temp;Humidity;BMP_temperature;BMP_pressure;BME280_temperature;BME280_humidity;BME280_pressure;Samples;Min_cycle;Max_cycle;Signal;HPM_P1;HPM_P2
2023/07/21 00:01:28;;;;;;;6.68;3.03;;;;;;;21.19;54.96;93743.50;5083004;28;20185;-74
2023/07/21 00:03:53;;;;;;;4.07;3.17;;;;;;;21.27;54.68;93750.44;5102589;28;20043;-74
2023/07/21 00:06:19;;;;;;;6.75;3.08;;;;;;;21.18;54.71;93736.53;5103477;28;20042;-74
2023/07/21 00:08:45;;;;;;;4.10;2.70;;;;;;;21.10;54.93;93721.44;5092564;28;20024;-74
2023/07/21 00:11:10;;;;;;;7.10;2.88;;;;;;;21.22;54.61;93739.22;5104103;28;20046;-74
2023/07/21 00:13:36;;;;;;;5.63;3.00;;;;;;;21.14;54.14;93726.84;5104097;28;20040;-75
2023/07/21 00:16:04;;;;;;;5.53;3.00;;;;;;;21.15;53.86;93726.47;5103426;28;20103;-74
2023/07/21 00:18:30;;;;;;;4.55;3.03;;;;;;;21.15;54.53;93729.19;5081948;28;20423;-74
2023/07/21 00:20:56;;;;;;;7.25;2.95;;;;;;;21.10;54.96;93728.78;5086873;28;20019;-75
2023/07/21 00:23:24;;;;;;;4.68;2.80;;;;;;;21.02;55.64;93717.19;5087014;28;20024;-74
2023/07/21 00:25:50;;;;;;;5.00;2.72;;;;;;;20.97;56.05;93721.00;5104124;28;20043;-75
2023/07/21 00:28:17;;;;;;;4.07;2.90;;;;;;;20.98;56.19;93724.47;5105020;28;20039;-75
2023/07/21 00:30:45;;;;;;;7.38;2.88;;;;;;;20.94;56.60;93731.81;5101052;28;20051;-74
2023/07/21 00:33:10;;;;;;;5.65;3.63;;;;;;;20.90;55.93;93717.50;5104386;28;20032;-74
2023/07/21 00:35:36;;;;;;;6.85;2.83;;;;;;;20.89;56.01;93707.84;5083392;28;20139;-75
2023/07/21 00:38:01;;;;;;;8.10;3.25;;;;;;;20.93;56.37;93731.03;5103167;28;20073;-75
2023/07/21 00:40:27;;;;;;;3.78;3.30;;;;;;;20.86;56.93;93720.16;5102854;28;20068;-74
2023/07/21 00:42:53;;;;;;;9.07;4.22;;;;;;;20.76;57.66;93720.13;5085794;28;20043;-75
2023/07/21 00:45:19;;;;;;;5.55;3.72;;;;;;;20.79;57.72;93725.53;5102094;28;20040;-74
2023/07/21 00:47:46;;;;;;;7.65;3.85;;;;;;;20.62;57.87;93699.22;5103439;28;20058;-74
2023/07/21 00:50:15;;;;;;;6.00;3.13;;;;;;;20.82;57.14;93724.78;5086417;28;20054;-75
2023/07/21 00:52:40;;;;;;;6.90;4.00;;;;;;;20.76;57.82;93706.59;5103580;28;20036;-74
2023/07/21 00:55:07;;;;;;;5.38;3.63;;;;;;;20.70;57.76;93697.31;5103883;28;20043;-74
2023/07/21 00:57:33;;;;;;;4.97;3.63;;;;;;;20.69;57.45;93698.44;5103164;28;20074;-75
2023/07/21 01:00:00;;;;;;;5.07;4.13;;;;;;;20.68;57.12;93691.53;5100136;28;20073;-75
2023/07/21 01:02:25;;;;;;;4.80;3.22;;;;;;;20.53;57.30;93669.06;5103170;28;20016;-74
2023/07/21 01:04:51;;;;;;;8.27;3.05;;;;;;;20.74;56.72;93695.38;5102691;28;20038;-75
2023/07/21 01:07:18;;;;;;;7.93;3.55;;;;;;;20.73;56.78;93689.19;5085378;28;20032;-75
2023/07/21 01:09:45;;;;;;;5.88;3.10;;;;;;;20.74;56.59;93690.75;5101696;28;20028;-74
2023/07/21 01:12:11;;;;;;;4.90;3.47;;;;;;;20.70;56.42;93678.38;5103700;28;20040;-74
2023/07/21 01:14:37;;;;;;;6.70;3.25;;;;;;;20.71;55.95;93669.13;5103266;28;20043;-75
2023/07/21 01:17:06;;;;;;;3.92;3.15;;;;;;;20.63;56.11;93672.97;5102135;28;20051;-74
2023/07/21 01:19:32;;;;;;;4.38;3.15;;;;;;;20.55;55.62;93662.13;5100834;28;20054;-75
2023/07/21 01:22:12;;;;;;;4.28;3.25;;;;;;;20.52;55.83;93665.59;5101952;28;20100;-74
2023/07/21 01:25:05;;;;;;;7.57;3.40;;;;;;;20.39;55.75;93653.53;5103810;28;20028;-74
2023/07/21 01:27:32;;;;;;;5.38;4.00;;;;;;;20.28;55.46;93650.03;5086355;28;20060;-74
2023/07/21 01:29:58;;;;;;;7.28;3.20;;;;;;;20.38;55.28;93668.22;5083971;28;20024;-75
2023/07/21 01:32:27;;;;;;;4.85;3.03;;;;;;;20.41;55.05;93669.38;5103340;28;20100;-75
2023/07/21 01:34:55;;;;;;;4.28;3.15;;;;;;;20.34;55.09;93667.41;5083268;28;20036;-74
2023/07/21 01:37:23;;;;;;;7.28;4.13;;;;;;;20.26;55.64;93665.06;5101447;28;20059;-74
2023/07/21 01:39:49;;;;;;;6.63;3.10;;;;;;;20.28;55.71;93690.53;5103059;28;20057;-74
2023/07/21 01:42:15;;;;;;;6.78;3.10;;;;;;;20.17;56.91;93701.28;5099171;28;20040;-74
2023/07/21 01:44:41;;;;;;;5.78;3.08;;;;;;;19.99;57.09;93694.19;5085760;28;20031;-74
2023/07/21 01:47:07;;;;;;;4.05;3.05;;;;;;;20.08;56.90;93713.53;5101356;28;20031;-75
2023/07/21 01:49:32;;;;;;;5.80;2.80;;;;;;;20.11;56.50;93718.94;5102542;28;20060;-74
2023/07/21 01:51:58;;;;;;;6.22;3.13;;;;;;;19.96;56.88;93689.50;5101263;28;20389;-74
2023/07/21 01:54:46;;;;;;;4.20;3.30;;;;;;;20.01;56.40;93702.66;5102004;28;20210;-74
2023/07/21 01:57:20;;;;;;;5.28;3.20;;;;;;;20.09;55.95;93715.06;5080380;28;20036;-74
2023/07/21 01:59:47;;;;;;;5.40;2.70;;;;;;;20.06;54.98;93710.41;5096689;28;20497;-73
2023/07/21 02:02:14;;;;;;;6.80;3.05;;;;;;;20.06;54.89;93716.59;5078542;28;20502;-75
2023/07/21 02:04:49;;;;;;;6.47;2.92;;;;;;;20.00;55.52;93698.41;5099965;28;20036;-75
2023/07/21 02:07:15;;;;;;;6.53;2.90;;;;;;;20.05;55.54;93719.66;5101292;28;20283;-74
2023/07/21 02:09:40;;;;;;;3.47;2.60;;;;;;;20.03;55.33;93714.66;5082459;28;20032;-75
2023/07/21 02:12:06;;;;;;;3.92;2.53;;;;;;;20.02;55.39;93715.78;5099359;28;20205;-75
2023/07/21 02:14:32;;;;;;;6.88;3.85;;;;;;;19.97;55.97;93718.06;5100611;28;20023;-75
2023/07/21 02:16:57;;;;;;;7.75;3.22;;;;;;;19.91;56.52;93708.75;5101372;28;20043;-75
2023/07/21 02:19:22;;;;;;;8.82;3.38;;;;;;;19.94;56.29;93716.13;5100432;28;20040;-74
2023/07/21 02:21:48;;;;;;;4.53;2.90;;;;;;;19.91;56.15;93708.75;5102746;28;20097;-74
2023/07/21 02:24:13;;;;;;;5.43;3.60;;;;;;;19.68;56.87;93671.97;5100440;28;20032;-75
2023/07/21 02:26:38;;;;;;;5.72;3.55;;;;;;;19.88;56.82;93704.13;5075884;28;20028;-75
2023/07/21 02:29:05;;;;;;;13.85;3.40;;;;;;;19.80;57.40;93700.56;5100508;28;20519;-75
2023/07/21 02:31:31;;;;;;;6.03;3.10;;;;;;;19.91;57.50;93719.53;5099047;28;20040;-74
2023/07/21 02:33:56;;;;;;;6.63;2.97;;;;;;;19.89;57.95;93711.84;5101703;28;20038;-74
2023/07/21 02:36:21;;;;;;;5.03;3.05;;;;;;;19.65;58.40;93675.41;5100649;28;20068;-74
2023/07/21 02:38:48;;;;;;;5.88;3.45;;;;;;;19.72;59.97;93691.66;5100832;28;20023;-76
2023/07/21 02:41:13;;;;;;;7.80;3.50;;;;;;;19.86;59.83;93717.19;5083888;28;20120;-75
2023/07/21 02:43:39;;;;;;;6.57;2.92;;;;;;;19.90;59.56;93718.78;5101102;28;20036;-74
2023/07/21 02:46:04;;;;;;;6.47;3.10;;;;;;;19.76;60.12;93697.06;5100956;28;20062;-75
2023/07/21 02:48:33;;;;;;;6.47;4.53;;;;;;;19.84;59.56;93700.63;5083634;28;20036;-74
2023/07/21 02:51:00;;;;;;;9.02;3.55;;;;;;;19.95;59.06;93706.84;5101150;28;20035;-74
2023/07/21 02:53:27;;;;;;;6.28;3.45;;;;;;;19.35;59.35;93628.13;5102462;28;20052;-75
2023/07/21 02:55:56;;;;;;;8.13;3.50;;;;;;;19.93;58.66;93711.88;5085352;28;20036;-74
2023/07/21 02:58:26;;;;;;;6.75;3.03;;;;;;;19.82;57.82;93702.91;5102376;28;20059;-75
2023/07/21 03:00:54;;;;;;;5.25;2.95;;;;;;;19.90;58.11;93718.00;5098255;28;20036;-74
2023/07/21 03:03:20;;;;;;;6.38;3.00;;;;;;;19.90;57.86;93723.38;5080794;28;20055;-75
2023/07/21 03:05:46;;;;;;;6.38;3.53;;;;;;;19.87;57.86;93719.53;5100184;28;20087;-74
2023/07/21 03:08:14;;;;;;;6.22;3.67;;;;;;;19.86;57.90;93725.28;5101133;28;20023;-74
2023/07/21 03:10:40;;;;;;;5.25;3.40;;;;;;;19.81;58.40;93728.34;5085383;28;20040;-75
2023/07/21 03:13:05;;;;;;;6.93;3.05;;;;;;;19.72;58.12;93726.72;5098740;28;20036;-74
2023/07/21 03:15:31;;;;;;;4.50;3.00;;;;;;;19.51;58.40;93696.84;5082228;28;20058;-74
2023/07/21 03:17:56;;;;;;;4.82;3.25;;;;;;;19.51;58.87;93713.03;5081649;28;20016;-74
2023/07/21 03:20:21;;;;;;;8.13;4.18;;;;;;;19.54;59.17;93725.81;5101205;28;20158;-75
2023/07/21 03:22:47;;;;;;;6.03;3.90;;;;;;;19.49;59.26;93726.13;5104501;28;20068;-75
2023/07/21 03:25:13;;;;;;;8.80;4.20;;;;;;;19.51;58.79;93726.53;5086745;28;20028;-75
2023/07/21 03:27:39;;;;;;;5.50;3.17;;;;;;;19.50;59.12;93721.53;5101760;28;20035;-75
2023/07/21 03:30:12;;;;;;;8.20;3.85;;;;;;;19.47;59.22;93728.41;5089153;28;20216;-76
2023/07/21 03:32:38;;;;;;;5.47;3.05;;;;;;;19.35;59.82;93725.19;5103409;28;20007;-75
2023/07/21 03:35:05;;;;;;;6.45;3.22;;;;;;;19.29;60.44;93732.84;5104176;28;20051;-76
2023/07/21 03:37:34;;;;;;;5.10;3.70;;;;;;;19.32;60.41;93748.28;5083887;28;20042;-74
2023/07/21 03:40:00;;;;;;;4.40;3.25;;;;;;;19.28;60.26;93737.44;5101683;28;20032;-75
2023/07/21 03:42:26;;;;;;;7.25;3.70;;;;;;;19.27;60.50;93743.19;5101465;28;20051;-75
2023/07/21 03:44:51;;;;;;;7.88;4.13;;;;;;;19.35;59.91;93747.53;5103585;28;20062;-75
2023/07/21 03:47:19;;;;;;;8.65;3.67;;;;;;;19.24;60.79;93736.66;5102302;28;20016;-75
2023/07/21 03:49:45;;;;;;;7.63;3.80;;;;;;;19.26;60.67;93739.72;5103203;28;20123;-75
2023/07/21 03:52:11;;;;;;;7.32;3.70;;;;;;;19.29;60.41;93741.72;5087209;28;20028;-76
2023/07/21 03:54:36;;;;;;;6.60;3.30;;;;;;;19.25;60.82;93738.19;5097087;28;20625;-74
2023/07/21 03:57:02;;;;;;;7.22;3.28;;;;;;;19.25;60.96;93748.22;5096720;28;20055;-75
2023/07/21 03:59:28;;;;;;;6.10;4.15;;;;;;;19.28;60.81;93747.47;5099016;28;20031;-73
2023/07/21 04:01:53;;;;;;;10.95;4.03;;;;;;;19.40;59.93;93760.69;5098315;28;20035;-74
2023/07/21 04:04:19;;;;;;;7.30;3.90;;;;;;;19.40;60.33;93763.41;5098150;28;20044;-75
2023/07/21 04:06:44;;;;;;;6.32;3.97;;;;;;;19.43;60.08;93765.34;5096439;28;20257;-74
2023/07/21 04:09:13;;;;;;;9.18;3.78;;;;;;;19.46;59.58;93767.31;5097434;28;20039;-75
2023/07/21 04:11:38;;;;;;;6.60;3.55;;;;;;;19.33;58.65;93749.81;5098862;28;20032;-74
2023/07/21 04:14:04;;;;;;;7.28;3.90;;;;;;;19.25;60.08;93740.13;5097467;28;20042;-74
2023/07/21 04:16:29;;;;;;;4.65;3.63;;;;;;;19.53;59.60;93775.50;5098363;28;20620;-74
2023/07/21 04:18:55;;;;;;;8.00;3.97;;;;;;;19.62;60.55;93770.56;5098710;28;20109;-74
2023/07/21 04:21:20;;;;;;;7.07;4.43;;;;;;;19.71;60.84;93775.66;5096457;28;20056;-74
2023/07/21 04:23:45;;;;;;;8.00;3.90;;;;;;;19.71;60.30;93762.94;5083102;28;20024;-74
2023/07/21 04:26:15;;;;;;;6.60;3.80;;;;;;;19.90;60.70;93786.25;5099973;28;20050;-76
2023/07/21 04:28:42;;;;;;;6.78;5.07;;;;;;;20.03;61.06;93782.13;5094836;28;20096;-76
2023/07/21 04:31:11;;;;;;;8.07;5.20;;;;;;;20.09;61.73;93771.78;5099918;28;20048;-75
2023/07/21 04:33:37;;;;;;;11.48;6.75;;;;;;;20.36;61.88;93780.47;5104315;28;20044;-74
2023/07/21 04:36:04;;;;;;;10.10;6.05;;;;;;;20.40;61.52;93773.16;5102159;28;20040;-74
2023/07/21 04:38:30;;;;;;;11.13;6.13;;;;;;;20.39;61.62;93764.28;5101325;28;20034;-75
2023/07/21 04:40:56;;;;;;;12.93;6.60;;;;;;;20.54;61.92;93771.31;5099870;28;20036;-75
2023/07/21 04:43:21;;;;;;;12.13;6.68;;;;;;;20.53;61.32;93750.88;5085104;28;20039;-75
2023/07/21 04:45:47;;;;;;;10.27;5.82;;;;;;;20.75;60.69;93772.63;5102185;28;20066;-75
2023/07/21 04:48:12;;;;;;;11.20;6.70;;;;;;;20.84;60.93;93776.53;5101834;28;20047;-75
2023/07/21 04:50:42;;;;;;;10.85;7.07;;;;;;;20.86;60.78;93770.75;5088389;28;20028;-74
2023/07/21 04:53:10;;;;;;;9.23;6.88;;;;;;;20.89;59.86;93768.09;5101791;28;20063;-74
2023/07/21 04:55:36;;;;;;;7.28;5.72;;;;;;;20.89;59.87;93770.00;5098150;28;20039;-75
2023/07/21 04:58:08;;;;;;;11.38;6.55;;;;;;;20.96;60.17;93772.75;5098279;28;20488;-75
2023/07/21 05:00:34;;;;;;;8.18;6.30;;;;;;;21.04;60.67;93771.63;5098407;28;20044;-74
2023/07/21 05:03:00;;;;;;;12.20;7.55;;;;;;;21.12;59.57;93777.84;5096579;28;20054;-74
2023/07/21 05:05:27;;;;;;;7.47;5.90;;;;;;;21.22;59.47;93782.50;5082083;28;20035;-74
2023/07/21 05:07:53;;;;;;;11.52;6.78;;;;;;;21.28;59.72;93779.06;5099456;28;20040;-75
2023/07/21 05:10:18;;;;;;;10.77;7.35;;;;;;;21.49;59.50;93783.75;5099030;28;20039;-75
2023/07/21 05:12:44;;;;;;;6.70;6.00;;;;;;;21.41;58.52;93774.84;5099895;28;20039;-75
2023/07/21 05:15:09;;;;;;;10.18;6.93;;;;;;;21.64;58.60;93784.59;5096037;28;20139;-75
2023/07/21 05:17:35;;;;;;;10.73;7.53;;;;;;;21.78;58.19;93781.94;5099949;28;20020;-74
2023/07/21 05:20:00;;;;;;;13.35;6.88;;;;;;;21.83;57.53;93784.25;5083107;28;20496;-74
2023/07/21 05:22:26;;;;;;;9.80;6.15;;;;;;;21.79;57.43;93780.78;5082339;28;20514;-74
2023/07/21 05:24:52;;;;;;;12.23;7.80;;;;;;;21.75;56.55;93774.59;5098173;28;20502;-74
2023/07/21 05:27:18;;;;;;;12.43;6.40;;;;;;;21.86;57.02;93786.97;5077575;28;20032;-75
2023/07/21 05:29:44;;;;;;;15.45;7.95;;;;;;;21.85;56.87;93785.41;5097484;28;20122;-74
2023/07/21 05:32:09;;;;;;;8.82;6.20;;;;;;;21.78;57.08;93769.16;5095917;28;20066;-74
2023/07/21 05:34:35;;;;;;;12.05;6.80;;;;;;;21.83;56.18;93787.75;5081097;28;20122;-74
2023/07/21 05:37:01;;;;;;;13.07;6.60;;;;;;;21.73;56.16;93768.75;5099291;28;20040;-74
2023/07/21 05:39:28;;;;;;;9.68;5.80;;;;;;;21.89;56.75;93782.72;5096020;28;20115;-74
2023/07/21 05:41:58;;;;;;;8.95;5.82;;;;;;;21.94;54.85;93776.94;5097202;28;20070;-74
2023/07/21 05:44:23;;;;;;;13.77;7.28;;;;;;;21.95;55.19;93794.69;5074591;28;20012;-75
2023/07/21 05:46:49;;;;;;;18.33;7.32;;;;;;;21.89;54.98;93785.44;5098040;28;20040;-74
2023/07/21 05:49:16;;;;;;;12.15;7.63;;;;;;;22.01;56.11;93800.50;5094872;28;20048;-74
2023/07/21 05:51:41;;;;;;;13.02;7.35;;;;;;;22.09;55.64;93789.31;5097985;28;20036;-74
2023/07/21 05:54:07;;;;;;;11.00;7.65;;;;;;;22.16;56.94;93793.94;5103067;28;20372;-75
2023/07/21 05:56:32;;;;;;;12.85;7.72;;;;;;;22.34;56.30;93800.16;5084596;28;20131;-75
2023/07/21 05:58:58;;;;;;;15.73;8.38;;;;;;;22.40;55.80;93803.25;5103081;28;20044;-75
2023/07/21 06:01:24;;;;;;;13.55;7.78;;;;;;;22.43;55.60;93800.56;5087322;28;20047;-74
2023/07/21 06:03:49;;;;;;;9.65;7.10;;;;;;;22.55;57.32;93804.78;5101058;28;20052;-74
2023/07/21 06:06:15;;;;;;;12.20;7.13;;;;;;;22.60;55.41;93791.63;5098361;28;20040;-74
2023/07/21 06:08:40;;;;;;;13.60;7.28;;;;;;;22.73;55.78;93781.91;5103082;28;20057;-74
2023/07/21 06:11:06;;;;;;;10.15;6.57;;;;;;;22.89;55.82;93784.25;5099123;28;20032;-74
2023/07/21 06:13:31;;;;;;;15.57;6.82;;;;;;;23.02;55.07;93793.53;5104067;28;20051;-74
2023/07/21 06:15:57;;;;;;;9.80;6.95;;;;;;;23.10;54.93;93777.97;5084947;28;20859;-75
2023/07/21 06:18:22;;;;;;;11.75;7.20;;;;;;;23.25;55.02;93781.41;5103360;28;20047;-74
2023/07/21 06:20:55;;;;;;;14.43;7.35;;;;;;;23.37;53.41;93789.09;5102773;28;20015;-75
2023/07/21 06:23:20;;;;;;;15.25;8.10;;;;;;;23.41;54.58;93773.59;5085963;28;20016;-74
2023/07/21 06:25:45;;;;;;;15.25;8.13;;;;;;;23.50;54.31;93776.69;5086405;28;20123;-75
2023/07/21 06:28:14;;;;;;;13.23;7.32;;;;;;;23.49;54.62;93756.91;5103561;28;20061;-75
2023/07/21 06:30:43;;;;;;;12.35;6.60;;;;;;;23.75;54.63;93776.53;5101518;28;20032;-75
2023/07/21 06:33:08;;;;;;;14.18;7.28;;;;;;;23.78;53.18;93765.66;5100655;28;20056;-76
2023/07/21 06:35:34;;;;;;;14.27;6.65;;;;;;;23.98;53.66;93766.69;5101283;28;20032;-76
2023/07/21 06:38:00;;;;;;;11.43;7.40;;;;;;;24.02;52.42;93759.28;5101755;28;20048;-75
2023/07/21 06:40:26;;;;;;;11.23;6.78;;;;;;;24.17;51.83;93770.84;5101391;28;20061;-76
2023/07/21 06:42:51;;;;;;;13.27;6.65;;;;;;;24.17;51.05;93772.78;5102432;28;20068;-75
2023/07/21 06:45:17;;;;;;;10.27;6.00;;;;;;;24.21;51.67;93770.78;5101551;28;20065;-74
2023/07/21 06:47:42;;;;;;;13.13;6.18;;;;;;;24.17;51.19;93780.94;5101959;28;20063;-74
2023/07/21 06:50:08;;;;;;;6.90;5.18;;;;;;;24.18;50.92;93766.19;5102420;28;20288;-75
2023/07/21 06:52:34;;;;;;;8.52;6.55;;;;;;;24.31;50.76;93780.81;5100309;28;20101;-75
2023/07/21 06:55:00;;;;;;;8.95;6.25;;;;;;;24.31;50.25;93781.59;5101914;28;20492;-75
2023/07/21 06:57:26;;;;;;;16.02;6.45;;;;;;;24.31;50.11;93759.84;5089762;28;20067;-73
2023/07/21 06:59:51;;;;;;;7.65;5.72;;;;;;;24.48;51.65;93779.91;5105185;28;20024;-75
2023/07/21 07:02:18;;;;;;;18.80;7.20;;;;;;;24.56;51.11;93778.66;5107786;28;20028;-74
2023/07/21 07:04:43;;;;;;;8.68;6.45;;;;;;;24.63;50.62;93777.81;5105453;28;20040;-75
2023/07/21 07:07:09;;;;;;;9.27;6.45;;;;;;;24.76;50.70;93778.88;5106154;28;20112;-76
2023/07/21 07:09:34;;;;;;;8.55;6.25;;;;;;;24.70;49.85;93759.47;5107247;28;20036;-74
2023/07/21 07:11:59;;;;;;;10.13;6.43;;;;;;;24.81;49.79;93776.50;5107651;28;20024;-75
2023/07/21 07:14:25;;;;;;;8.02;6.00;;;;;;;24.75;50.19;93769.94;5087547;28;20023;-75
2023/07/21 07:16:50;;;;;;;6.90;6.18;;;;;;;24.87;50.25;93778.78;5090938;28;20539;-75
2023/07/21 07:19:17;;;;;;;9.60;6.20;;;;;;;24.84;50.08;93762.09;5106889;28;20082;-75
2023/07/21 07:21:42;;;;;;;10.40;6.05;;;;;;;24.97;49.43;93783.34;5107587;28;20040;-74
2023/07/21 07:24:09;;;;;;;9.75;5.90;;;;;;;24.91;49.75;93772.13;5103291;28;20044;-75
2023/07/21 07:26:35;;;;;;;11.10;5.93;;;;;;;24.92;48.77;93767.47;5106390;28;20027;-74
2023/07/21 07:29:03;;;;;;;6.97;5.70;;;;;;;25.03;49.17;93777.03;5105723;28;20056;-75
2023/07/21 07:31:29;;;;;;;9.02;6.10;;;;;;;25.00;48.77;93768.91;5106989;28;20058;-75
2023/07/21 07:33:58;;;;;;;20.00;6.63;;;;;;;25.08;48.38;93778.53;5105822;28;20043;-76
2023/07/21 07:36:24;;;;;;;15.18;6.47;;;;;;;24.91;47.89;93757.75;5089303;28;20112;-75
2023/07/21 07:38:49;;;;;;;10.65;5.68;;;;;;;25.10;48.67;93776.19;5104085;28;20047;-75
2023/07/21 07:41:15;;;;;;;12.95;5.30;;;;;;;25.13;47.22;93761.75;5104284;28;20024;-75
2023/07/21 07:43:40;;;;;;;12.18;5.40;;;;;;;25.13;46.01;93765.25;5105621;28;20043;-74
2023/07/21 07:46:07;;;;;;;14.23;5.72;;;;;;;25.28;46.45;93776.75;5105050;28;20028;-75
2023/07/21 07:48:33;;;;;;;10.95;4.55;;;;;;;25.35;46.55;93775.94;5088283;28;20044;-75
2023/07/21 07:51:06;;;;;;;9.90;5.60;;;;;;;25.41;47.35;93769.63;5085760;28;20020;-76
2023/07/21 07:53:32;;;;;;;11.07;5.65;;;;;;;25.45;46.59;93759.47;5086321;28;20029;-75
2023/07/21 07:56:01;;;;;;;13.43;6.47;;;;;;;25.55;46.38;93758.56;5085329;28;20036;-76
2023/07/21 07:58:27;;;;;;;14.93;5.68;;;;;;;25.66;45.39;93767.34;5084006;28;20029;-75
2023/07/21 08:00:59;;;;;;;8.15;6.55;;;;;;;25.76;45.04;93770.34;5083643;28;20043;-75
2023/07/21 08:03:25;;;;;;;13.13;5.75;;;;;;;25.37;44.49;93708.25;5082270;28;20044;-75
2023/07/21 08:05:50;;;;;;;11.73;6.00;;;;;;;25.76;44.97;93767.63;5081373;28;20025;-75
2023/07/21 08:08:22;;;;;;;10.05;5.20;;;;;;;25.73;43.78;93768.41;5077693;28;20072;-76
2023/07/21 08:10:47;;;;;;;7.43;4.15;;;;;;;25.73;42.89;93769.19;5082390;28;20121;-76
2023/07/21 08:13:13;;;;;;;15.07;6.13;;;;;;;25.81;44.14;93769.88;5084129;28;20032;-76
2023/07/21 08:15:40;;;;;;;13.25;6.47;;;;;;;25.86;44.74;93770.16;5082706;28;20853;-76
2023/07/21 08:18:06;;;;;;;16.70;5.93;;;;;;;25.90;45.26;93772.88;5081745;28;20029;-77
2023/07/21 08:20:31;;;;;;;8.90;4.75;;;;;;;25.96;45.13;93779.41;5082729;28;20038;-74
2023/07/21 08:22:57;;;;;;;8.68;5.45;;;;;;;25.91;44.92;93769.00;5081352;28;20017;-75
2023/07/21 08:25:23;;;;;;;10.77;5.93;;;;;;;25.96;42.96;93773.94;5099142;28;20029;-76
2023/07/21 08:27:48;;;;;;;11.05;6.10;;;;;;;25.97;43.76;93773.53;5081272;28;20044;-75
2023/07/21 08:30:15;;;;;;;6.85;5.28;;;;;;;25.98;43.98;93771.59;5082604;28;20072;-76
2023/07/21 08:32:41;;;;;;;13.15;5.65;;;;;;;25.98;43.22;93775.09;5079993;28;20028;-74
2023/07/21 08:35:07;;;;;;;8.60;5.50;;;;;;;25.87;43.28;93757.31;5078911;28;20067;-75
2023/07/21 08:37:33;;;;;;;9.85;4.95;;;;;;;25.99;42.59;93767.69;5080660;28;20044;-74
2023/07/21 08:39:58;;;;;;;9.20;5.30;;;;;;;25.84;42.32;93753.47;5080825;28;20044;-75
2023/07/21 08:42:25;;;;;;;8.70;5.18;;;;;;;25.75;42.50;93755.94;5079714;28;20028;-75
2023/07/21 08:44:53;;;;;;;14.98;5.47;;;;;;;25.73;43.16;93757.53;5077093;28;20025;-75
2023/07/21 08:47:19;;;;;;;9.20;4.78;;;;;;;25.60;42.44;93755.38;5080989;28;20089;-75
2023/07/21 08:49:46;;;;;;;9.50;5.00;;;;;;;25.78;41.82;93768.72;5097389;28;20074;-75
2023/07/21 08:52:11;;;;;;;11.18;4.95;;;;;;;25.87;42.45;93769.00;5079746;28;20047;-76
2023/07/21 08:54:37;;;;;;;8.18;4.65;;;;;;;25.96;41.64;93771.22;5082691;28;20032;-75
2023/07/21 08:57:02;;;;;;;11.65;5.50;;;;;;;25.87;42.25;93760.03;5099071;28;20050;-75
2023/07/21 08:59:28;;;;;;;12.75;5.50;;;;;;;25.97;42.38;93775.50;5097902;28;20101;-75
2023/07/21 09:01:53;;;;;;;8.55;5.80;;;;;;;25.91;42.30;93769.72;5100560;28;20602;-75
2023/07/21 09:04:20;;;;;;;9.82;4.88;;;;;;;25.89;42.85;93771.34;5099200;28;20225;-75
2023/07/21 09:06:54;;;;;;;10.40;5.30;;;;;;;25.95;42.78;93748.69;5100053;28;20129;-75
2023/07/21 09:09:21;;;;;;;6.60;4.95;;;;;;;26.12;43.26;93763.19;5091517;28;20562;-75
2023/07/21 09:11:47;;;;;;;17.63;5.63;;;;;;;26.10;42.84;93765.59;5100161;28;20054;-76
2023/07/21 09:14:14;;;;;;;11.45;5.47;;;;;;;26.29;42.72;93762.16;5100716;28;20096;-75
2023/07/21 09:16:39;;;;;;;11.25;5.20;;;;;;;26.33;42.98;93770.28;5081786;28;20044;-75
2023/07/21 09:19:07;;;;;;;15.63;5.47;;;;;;;26.23;42.18;93752.91;5082083;28;20035;-74
2023/07/21 09:21:35;;;;;;;10.20;5.88;;;;;;;26.29;42.24;93762.16;5096396;28;20107;-74
2023/07/21 09:24:06;;;;;;;12.43;6.22;;;;;;;26.26;40.84;93741.16;5073351;28;20059;-75
2023/07/21 09:26:33;;;;;;;10.52;6.05;;;;;;;26.25;41.93;93739.63;5098951;28;20262;-76
2023/07/21 09:28:59;;;;;;;16.77;6.78;;;;;;;26.32;41.28;93742.25;5096293;28;20056;-75
2023/07/21 09:31:33;;;;;;;8.48;5.55;;;;;;;26.38;41.69;93742.53;5081575;28;20055;-75
2023/07/21 09:34:12;;;;;;;8.13;5.17;;;;;;;26.50;43.24;93733.78;5097287;28;20061;-75
2023/07/21 09:36:44;;;;;;;10.73;5.40;;;;;;;26.52;41.46;93743.09;5099255;28;20104;-75
2023/07/21 09:39:14;;;;;;;7.95;5.72;;;;;;;26.58;40.88;93742.63;5095968;28;20032;-75
2023/07/21 09:41:40;;;;;;;12.80;5.35;;;;;;;26.64;41.15;93738.22;5097571;28;20040;-76
2023/07/21 09:44:06;;;;;;;11.85;5.65;;;;;;;26.71;40.72;93727.94;5079757;28;20065;-74
2023/07/21 09:46:33;;;;;;;11.23;5.70;;;;;;;26.65;40.55;93728.84;5097087;28;20099;-75
2023/07/21 09:48:58;;;;;;;9.98;5.13;;;;;;;26.61;40.87;93733.59;5081046;28;20112;-74
2023/07/21 09:51:26;;;;;;;8.68;5.00;;;;;;;26.75;40.76;93738.78;5097194;28;20055;-75
2023/07/21 09:53:52;;;;;;;7.82;5.32;;;;;;;26.79;41.95;93731.34;5097512;28;20031;-75
2023/07/21 09:56:21;;;;;;;10.13;4.75;;;;;;;26.79;41.20;93728.59;5097802;28;20168;-75
2023/07/21 09:59:07;;;;;;;11.05;5.45;;;;;;;26.73;41.31;93719.34;5097858;28;20046;-75
2023/07/21 10:01:33;;;;;;;9.98;5.18;;;;;;;26.78;41.19;93737.97;5097018;28;20043;-74
2023/07/21 10:03:59;;;;;;;9.15;5.05;;;;;;;26.83;41.33;93732.03;5096819;28;20040;-74
2023/07/21 10:06:25;;;;;;;12.52;6.03;;;;;;;27.03;40.91;93738.31;5098014;28;20047;-76
2023/07/21 10:08:52;;;;;;;7.88;5.15;;;;;;;27.03;40.64;93723.88;5097301;28;20107;-75
2023/07/21 10:11:18;;;;;;;11.38;5.88;;;;;;;27.14;41.02;93738.84;5097121;28;20551;-75
2023/07/21 10:13:46;;;;;;;21.65;5.35;;;;;;;27.15;40.62;93724.00;5099621;28;20040;-75
2023/07/21 10:16:12;;;;;;;9.80;5.43;;;;;;;27.14;40.93;93717.00;5097991;28;20039;-74
2023/07/21 10:19:05;;;;;;;15.70;5.00;;;;;;;27.17;41.08;93735.28;5098097;28;20063;-74
2023/07/21 10:21:51;;;;;;;14.95;6.05;;;;;;;27.11;41.07;93731.50;5100056;28;20042;-74
2023/07/21 10:24:25;;;;;;;7.50;4.90;;;;;;;27.19;41.22;93732.88;5083101;28;20044;-74
2023/07/21 10:27:04;;;;;;;9.05;5.82;;;;;;;27.13;40.83;93726.38;5078502;28;20683;-73
2023/07/21 10:29:30;;;;;;;24.08;5.95;;;;;;;27.21;40.70;93727.78;5082147;28;20039;-75
2023/07/21 10:31:57;;;;;;;14.35;6.18;;;;;;;27.23;40.16;93711.75;5103656;28;20028;-75
2023/07/21 10:34:26;;;;;;;10.02;5.05;;;;;;;27.44;40.40;93734.34;5105571;28;20117;-75
2023/07/21 10:36:51;;;;;;;9.88;5.20;;;;;;;27.51;39.00;93723.28;5105433;28;20044;-74
2023/07/21 10:39:22;;;;;;;9.38;4.85;;;;;;;27.48;39.81;93713.94;5103679;28;20062;-75
2023/07/21 10:41:52;;;;;;;11.77;5.90;;;;;;;27.61;39.43;93722.31;5086022;28;20035;-74
2023/07/21 10:44:18;;;;;;;10.13;5.05;;;;;;;27.65;39.27;93717.53;5088582;28;20024;-75
2023/07/21 10:46:46;;;;;;;12.73;5.63;;;;;;;27.77;40.33;93695.75;5104589;28;20043;-74
2023/07/21 10:49:13;;;;;;;11.15;4.85;;;;;;;27.82;38.94;93710.88;5103769;28;20111;-74
2023/07/21 10:51:39;;;;;;;19.63;5.78;;;;;;;27.82;39.13;93710.88;5084655;28;20037;-73
2023/07/21 10:54:05;;;;;;;13.55;6.55;;;;;;;27.84;39.23;93708.50;5102162;28;20032;-75
2023/07/21 10:56:34;;;;;;;12.43;6.10;;;;;;;27.92;38.79;93696.19;5087422;28;20118;-76
2023/07/21 10:59:00;;;;;;;12.40;6.18;;;;;;;27.99;38.70;93703.47;5100394;28;20043;-75
2023/07/21 11:01:26;;;;;;;8.15;5.05;;;;;;;27.98;38.88;93699.19;5100820;28;20055;-73
2023/07/21 11:03:52;;;;;;;15.55;5.95;;;;;;;28.19;38.76;93707.69;5087558;28;20039;-74
2023/07/21 11:06:18;;;;;;;9.20;3.55;;;;;;;28.28;32.99;93703.56;5082994;28;20128;-75
2023/07/21 11:08:43;;;;;;;8.00;3.85;;;;;;;28.24;33.32;93696.25;5105182;28;20047;-74
2023/07/21 11:11:09;;;;;;;13.75;5.25;;;;;;;28.23;32.62;93691.19;5090390;28;20577;-75
2023/07/21 11:13:37;;;;;;;12.75;5.07;;;;;;;28.23;31.80;93697.44;5106404;28;20040;-77
2023/07/21 11:16:03;;;;;;;8.43;3.80;;;;;;;28.25;32.42;93684.06;5102363;28;20021;-74
2023/07/21 11:18:28;;;;;;;13.27;3.90;;;;;;;28.20;32.41;93692.81;5104607;28;20077;-75
2023/07/21 11:20:56;;;;;;;14.00;4.80;;;;;;;28.27;31.54;93696.56;5103408;28;20035;-75
2023/07/21 11:23:23;;;;;;;11.32;4.32;;;;;;;28.29;32.22;93692.22;5106962;28;20500;-75
2023/07/21 11:26:03;;;;;;;12.45;3.90;;;;;;;28.28;33.07;93692.63;5103293;28;20058;-75
2023/07/21 11:28:29;;;;;;;13.68;4.20;;;;;;;28.29;32.36;93688.72;5095364;28;20032;-75